createdAt,value
2019-02-08T00:00:12.069Z,30.93
2019-02-08T00:02:44.587Z,28.07
2019-02-08T00:05:17.403Z,30.17
2019-02-08T00:07:50.153Z,29.00
2019-02-08T00:10:23.263Z,29.93
2019-02-08T00:12:55.898Z,29.60
2019-02-08T00:15:29.247Z,28.43
2019-02-08T00:18:01.780Z,29.10
2019-02-08T00:20:34.485Z,29.77
2019-02-08T00:23:07.330Z,30.20
2019-02-08T00:25:40.056Z,28.47
2019-02-08T00:28:12.633Z,29.33
2019-02-08T00:30:45.047Z,28.93
2019-02-08T00:33:17.707Z,30.47
2019-02-08T00:35:49.977Z,28.80
2019-02-08T00:38:22.682Z,29.80
2019-02-08T00:40:56.390Z,28.97
2019-02-08T00:43:28.731Z,31.43
2019-02-08T00:46:01.174Z,30.23
2019-02-08T00:48:33.683Z,29.90
2019-02-08T00:51:06.649Z,29.77
2019-02-08T00:53:38.967Z,29.23
2019-02-08T00:56:11.431Z,29.13
2019-02-08T00:58:43.827Z,29.70
2019-02-08T01:01:16.082Z,29.80
2019-02-08T01:03:49.100Z,30.63
2019-02-08T01:06:21.485Z,30.13
2019-02-08T01:08:53.940Z,28.67
2019-02-08T01:11:26.752Z,28.73
2019-02-08T01:13:59.582Z,28.00
2019-02-08T01:16:32.442Z,28.27
2019-02-08T01:19:05.309Z,29.20
2019-02-08T01:21:37.840Z,28.53
2019-02-08T01:24:10.480Z,29.50
2019-02-08T01:26:43.491Z,27.93
2019-02-08T01:29:16.308Z,28.83
2019-02-08T01:31:48.704Z,28.87
2019-02-08T01:34:21.170Z,30.17
2019-02-08T01:36:53.638Z,28.33
2019-02-08T01:39:26.098Z,29.53
2019-02-08T01:41:58.550Z,29.20
2019-02-08T01:44:30.853Z,28.17
2019-02-08T01:47:03.532Z,29.50
2019-02-08T01:49:36.394Z,30.20
2019-02-08T01:52:08.825Z,30.00
2019-02-08T01:54:41.464Z,29.10
2019-02-08T01:57:13.900Z,28.97
2019-02-08T01:59:46.317Z,29.03
2019-02-08T02:02:19.079Z,27.53
2019-02-08T02:04:51.458Z,27.70
2019-02-08T02:07:24.227Z,27.97
2019-02-08T02:09:56.863Z,28.37
2019-02-08T02:12:29.200Z,27.90
2019-02-08T02:15:01.737Z,28.10
2019-02-08T02:17:34.211Z,27.03
2019-02-08T02:20:08.598Z,28.77
2019-02-08T02:22:42.336Z,26.23
2019-02-08T02:25:16.764Z,29.90
2019-02-08T02:27:49.276Z,27.23
2019-02-08T02:30:26.055Z,27.33
2019-02-08T02:32:58.625Z,27.27
2019-02-08T02:35:31.484Z,28.53
2019-02-08T02:38:04.174Z,27.07
2019-02-08T02:40:36.972Z,29.03
2019-02-08T02:43:09.802Z,28.53
2019-02-08T02:45:42.941Z,26.87
2019-02-08T02:48:16.216Z,27.30
2019-02-08T02:50:48.567Z,28.10
2019-02-08T02:53:21.224Z,27.77
2019-02-08T02:55:53.669Z,27.97
2019-02-08T02:58:26.229Z,27.87
2019-02-08T03:00:59.241Z,28.77
2019-02-08T03:03:31.832Z,28.17
2019-02-08T03:06:04.448Z,31.13
2019-02-08T03:08:36.988Z,28.50
2019-02-08T03:11:09.541Z,29.00
2019-02-08T03:13:42.001Z,27.57
2019-02-08T03:16:14.472Z,28.83
2019-02-08T03:18:47.074Z,27.83
2019-02-08T03:21:19.597Z,27.90
2019-02-08T03:23:52.394Z,28.20
2019-02-08T03:26:24.710Z,28.17
2019-02-08T03:28:57.524Z,27.57
2019-02-08T03:31:30.089Z,28.77
2019-02-08T03:34:02.721Z,28.00
2019-02-08T03:36:35.619Z,27.83
2019-02-08T03:39:10.816Z,28.93
2019-02-08T03:41:43.218Z,28.47
2019-02-08T03:44:15.856Z,29.13
2019-02-08T03:46:48.360Z,28.43
2019-02-08T03:49:20.730Z,30.50
2019-02-08T03:51:53.222Z,28.77
2019-02-08T03:54:25.641Z,29.33
2019-02-08T03:56:57.978Z,29.03
2019-02-08T03:59:30.764Z,29.80
2019-02-08T04:02:03.618Z,30.30
2019-02-08T04:04:36.463Z,29.10
2019-02-08T04:07:09.786Z,29.57
2019-02-08T04:09:42.294Z,30.63
2019-02-08T04:12:15.050Z,28.90
2019-02-08T04:14:47.550Z,29.00
2019-02-08T04:17:20.313Z,31.83
2019-02-08T04:19:52.899Z,30.30
2019-02-08T04:22:25.439Z,30.60
2019-02-08T04:24:58.142Z,30.43
2019-02-08T04:27:30.651Z,30.63
2019-02-08T04:30:03.343Z,31.03
2019-02-08T04:32:35.796Z,32.10
2019-02-08T04:35:08.389Z,32.23
2019-02-08T04:37:40.939Z,32.83
2019-02-08T04:40:14.224Z,31.87
2019-02-08T04:42:46.986Z,33.30
2019-02-08T04:45:20.104Z,33.90
2019-02-08T04:47:52.537Z,32.00
2019-02-08T04:50:25.536Z,32.20
2019-02-08T04:52:59.015Z,35.93
2019-02-08T04:55:31.497Z,53.17
2019-02-08T04:58:05.524Z,37.73
2019-02-08T05:00:38.542Z,33.43
2019-02-08T05:03:11.282Z,32.53
2019-02-08T05:05:43.963Z,36.87
2019-02-08T05:08:16.440Z,32.63
2019-02-08T05:10:49.585Z,30.83
2019-02-08T05:13:22.032Z,31.80
2019-02-08T05:15:54.428Z,33.47
2019-02-08T05:18:26.988Z,33.60
2019-02-08T05:20:59.780Z,32.40
2019-02-08T05:23:32.253Z,32.77
2019-02-08T05:26:04.985Z,31.27
2019-02-08T05:28:37.558Z,33.87
2019-02-08T05:31:10.178Z,33.67
2019-02-08T05:33:42.565Z,35.03
2019-02-08T05:36:15.008Z,33.77
2019-02-08T05:38:47.547Z,32.83
2019-02-08T05:41:20.355Z,32.50
2019-02-08T05:43:52.920Z,34.43
2019-02-08T05:46:25.434Z,33.90
2019-02-08T05:48:57.930Z,33.30
2019-02-08T05:51:30.318Z,40.17
2019-02-08T05:54:02.862Z,36.10
2019-02-08T05:56:35.497Z,34.00
2019-02-08T05:59:08.485Z,34.87
2019-02-08T06:01:41.034Z,34.50
2019-02-08T06:04:13.742Z,35.60
2019-02-08T06:06:46.140Z,37.53
2019-02-08T06:09:18.517Z,36.00
2019-02-08T06:11:51.231Z,35.70
2019-02-08T06:14:23.645Z,35.40
2019-02-08T06:16:55.938Z,34.83
2019-02-08T06:19:28.440Z,34.07
2019-02-08T06:22:00.899Z,34.43
2019-02-08T06:24:33.297Z,34.20
2019-02-08T06:27:05.892Z,33.97
2019-02-08T06:29:38.538Z,40.00
2019-02-08T06:32:11.066Z,36.60
2019-02-08T06:34:43.614Z,36.33
2019-02-08T06:37:17.082Z,35.53
2019-02-08T06:39:49.452Z,35.67
2019-02-08T06:42:21.918Z,35.60
2019-02-08T06:44:54.609Z,36.27
2019-02-08T06:47:27.304Z,35.67
2019-02-08T06:50:00.049Z,73.60
2019-02-08T06:52:32.655Z,49.27
2019-02-08T06:55:10.649Z,37.80
2019-02-08T06:57:47.656Z,39.53
2019-02-08T07:00:35.115Z,37.13
2019-02-08T07:03:27.596Z,37.50
2019-02-08T07:06:25.242Z,36.23
2019-02-08T07:09:18.944Z,37.30
2019-02-08T07:12:08.526Z,36.60
2019-02-08T07:15:14.660Z,36.33
2019-02-08T07:18:12.554Z,34.37
2019-02-08T07:21:03.681Z,35.70
2019-02-08T07:24:05.606Z,36.83
2019-02-08T07:27:00.133Z,34.17
2019-02-08T07:29:50.955Z,34.60
2019-02-08T07:32:42.541Z,34.33
2019-02-08T07:35:30.782Z,36.13
2019-02-08T07:38:13.413Z,35.87
2019-02-08T07:41:22.879Z,36.73
2019-02-08T07:44:13.197Z,35.10
2019-02-08T07:47:12.132Z,37.47
2019-02-08T07:50:06.755Z,36.53
2019-02-08T07:53:05.784Z,36.23
2019-02-08T07:56:05.007Z,34.47
2019-02-08T07:58:56.200Z,34.87
2019-02-08T08:01:46.774Z,38.50
2019-02-08T08:04:38.230Z,39.47
2019-02-08T08:07:37.025Z,39.17
2019-02-08T08:10:30.351Z,36.83
2019-02-08T08:13:20.449Z,34.50
2019-02-08T08:16:15.291Z,34.63
2019-02-08T08:19:07.257Z,34.63
2019-02-08T08:21:57.461Z,35.30
2019-02-08T08:24:44.759Z,36.47
2019-02-08T08:27:33.807Z,34.90
2019-02-08T08:30:35.907Z,35.57
2019-02-08T08:33:27.277Z,36.63
2019-02-08T08:36:49.835Z,36.77
2019-02-08T08:39:58.987Z,35.57
2019-02-08T08:43:32.569Z,37.40
2019-02-08T08:47:10.902Z,37.97
2019-02-08T08:50:44.859Z,37.47
2019-02-08T08:54:19.849Z,36.87
2019-02-08T08:57:24.085Z,35.93
2019-02-08T09:00:58.890Z,36.53
2019-02-08T09:04:35.188Z,36.40
2019-02-08T09:07:57.904Z,34.07
2019-02-08T09:11:27.359Z,35.10
2019-02-08T09:15:00.962Z,36.13
2019-02-08T09:18:48.191Z,34.07
2019-02-08T09:22:16.058Z,33.70
2019-02-08T09:25:41.807Z,34.90
2019-02-08T09:28:58.013Z,34.70
2019-02-08T09:32:46.351Z,36.83
2019-02-08T09:36:19.001Z,35.43
2019-02-08T09:39:37.944Z,36.33
2019-02-08T09:43:12.512Z,34.53
2019-02-08T09:46:32.187Z,36.73
2019-02-08T09:50:01.735Z,37.70
2019-02-08T09:53:30.717Z,36.93
2019-02-08T09:57:29.902Z,38.33
2019-02-08T10:01:13.973Z,39.43
2019-02-08T10:04:41.272Z,38.87
2019-02-08T10:08:40.598Z,34.37
2019-02-08T10:12:24.461Z,35.00
2019-02-08T10:16:09.258Z,31.90
2019-02-08T10:19:35.905Z,31.43
2019-02-08T10:23:29.559Z,31.63
2019-02-08T10:27:19.870Z,27.47
2019-02-08T10:30:37.510Z,26.40
2019-02-08T10:34:03.647Z,25.07
2019-02-08T10:37:51.230Z,24.50
2019-02-08T10:41:40.148Z,25.30
2019-02-08T10:45:11.845Z,23.90
2019-02-08T10:49:03.739Z,23.70
2019-02-08T10:52:35.546Z,22.57
2019-02-08T10:56:14.616Z,22.53
2019-02-08T10:59:47.035Z,21.73
2019-02-08T11:03:23.677Z,21.67
2019-02-08T11:06:43.399Z,17.70
2019-02-08T11:10:13.917Z,18.57
2019-02-08T11:13:49.082Z,17.37
2019-02-08T11:17:13.235Z,18.63
2019-02-08T11:19:42.467Z,18.00
2019-02-08T11:22:15.330Z,17.73
2019-02-08T11:24:47.836Z,18.87
2019-02-08T11:27:20.526Z,18.60
2019-02-08T11:29:53.261Z,18.57
2019-02-08T11:32:33.500Z,17.33
2019-02-08T11:35:00.329Z,18.03
2019-02-08T11:37:32.784Z,17.43
2019-02-08T11:40:08.514Z,17.33
2019-02-08T11:42:41.195Z,15.90
2019-02-08T11:45:14.677Z,15.50
2019-02-08T11:47:47.250Z,16.53
2019-02-08T11:50:21.379Z,15.10
2019-02-08T11:52:53.902Z,14.53
2019-02-08T11:55:26.496Z,13.70
2019-02-08T11:57:59.054Z,12.33
2019-02-08T12:00:38.172Z,12.20
2019-02-08T12:03:10.604Z,12.93
2019-02-08T12:05:43.272Z,11.07
2019-02-08T12:08:15.848Z,10.13
2019-02-08T12:10:48.576Z,10.70
2019-02-08T12:13:21.138Z,11.73
2019-02-08T12:15:53.841Z,11.90
2019-02-08T12:18:26.187Z,12.33
2019-02-08T12:20:59.747Z,13.30
2019-02-08T12:23:32.257Z,12.47
2019-02-08T12:26:05.069Z,13.17
2019-02-08T12:28:37.480Z,12.70
2019-02-08T12:31:10.079Z,11.73
2019-02-08T12:33:42.714Z,12.67
2019-02-08T12:36:15.323Z,11.23
2019-02-08T12:38:47.806Z,12.70
2019-02-08T12:41:20.384Z,12.30
2019-02-08T12:43:52.751Z,12.00
2019-02-08T12:46:25.365Z,11.77
2019-02-08T12:48:58.053Z,11.43
2019-02-08T12:51:30.396Z,11.07
2019-02-08T12:54:02.763Z,11.47
2019-02-08T12:56:35.247Z,12.03
2019-02-08T12:59:08.185Z,12.80
2019-02-08T13:01:40.589Z,13.50
2019-02-08T13:04:12.941Z,13.30
2019-02-08T13:06:45.476Z,13.60
2019-02-08T13:09:17.854Z,13.87
2019-02-08T13:11:50.374Z,13.43
2019-02-08T13:14:22.942Z,14.00
2019-02-08T13:16:55.479Z,13.50
2019-02-08T13:19:28.413Z,13.67
2019-02-08T13:22:01.062Z,14.67
2019-02-08T13:24:34.121Z,14.10
2019-02-08T13:27:06.575Z,15.00
2019-02-08T13:29:38.922Z,14.30
2019-02-08T13:32:11.723Z,13.80
2019-02-08T13:34:44.598Z,14.27
2019-02-08T13:37:17.143Z,15.50
2019-02-08T13:39:49.581Z,15.83
2019-02-08T13:42:23.918Z,15.87
2019-02-08T13:44:56.647Z,16.20
2019-02-08T13:47:29.425Z,15.60
2019-02-08T13:50:02.023Z,15.80
2019-02-08T13:52:34.588Z,13.07
2019-02-08T13:55:08.379Z,12.83
2019-02-08T13:57:40.885Z,12.50
2019-02-08T14:00:21.567Z,12.17
2019-02-08T14:02:54.381Z,11.97
2019-02-08T14:05:27.134Z,12.40
2019-02-08T14:08:10.862Z,12.87
2019-02-08T14:10:54.309Z,12.80
2019-02-08T14:13:26.963Z,12.70
2019-02-08T14:15:59.496Z,11.57
2019-02-08T14:18:32.033Z,12.23
2019-02-08T14:21:05.362Z,11.47
2019-02-08T14:23:38.068Z,13.00
2019-02-08T14:26:10.610Z,28.23
2019-02-08T14:28:42.990Z,28.63
2019-02-08T14:31:15.403Z,29.23
2019-02-08T14:33:47.876Z,23.77
2019-02-08T14:36:20.369Z,28.10
2019-02-08T14:38:52.930Z,25.73
2019-02-08T14:41:25.473Z,25.17
2019-02-08T14:43:57.900Z,23.13
2019-02-08T14:46:30.560Z,24.20
2019-02-08T14:49:03.543Z,24.13
2019-02-08T14:51:36.159Z,24.23
2019-02-08T14:54:09.251Z,44.03
2019-02-08T14:56:41.601Z,24.73
2019-02-08T14:59:14.496Z,34.30
2019-02-08T15:01:47.351Z,24.77
2019-02-08T15:04:19.807Z,24.40
2019-02-08T15:06:52.212Z,25.07
2019-02-08T15:09:25.476Z,25.13
2019-02-08T15:11:58.126Z,23.77
2019-02-08T15:14:30.594Z,23.27
2019-02-08T15:17:03.004Z,23.77
2019-02-08T15:19:35.751Z,24.67
2019-02-08T15:22:08.568Z,24.43
2019-02-08T15:24:41.185Z,24.53
2019-02-08T15:27:13.676Z,25.17
2019-02-08T15:29:46.493Z,25.67
2019-02-08T15:32:19.051Z,26.33
2019-02-08T15:34:51.430Z,41.23
2019-02-08T15:37:24.051Z,29.07
2019-02-08T15:39:56.628Z,28.27
2019-02-08T15:42:29.407Z,25.83
2019-02-08T15:45:01.972Z,26.13
2019-02-08T15:47:34.569Z,27.17
2019-02-08T15:50:08.162Z,27.73
2019-02-08T15:52:40.864Z,29.47
2019-02-08T15:55:18.657Z,29.23
2019-02-08T15:57:51.276Z,30.67
2019-02-08T16:00:27.315Z,32.30
2019-02-08T16:03:00.610Z,35.37
2019-02-08T16:05:33.521Z,34.23
2019-02-08T16:08:06.257Z,31.53
2019-02-08T16:10:39.017Z,31.40
2019-02-08T16:13:11.622Z,31.83
2019-02-08T16:15:44.913Z,31.30
2019-02-08T16:18:17.741Z,29.70
2019-02-08T16:20:50.350Z,29.90
2019-02-08T16:23:22.778Z,30.70
2019-02-08T16:25:56.996Z,32.70
2019-02-08T16:28:29.586Z,32.17
2019-02-08T16:31:02.148Z,34.00
2019-02-08T16:33:34.716Z,34.40
2019-02-08T16:36:08.518Z,36.53
2019-02-08T16:38:41.155Z,35.27
2019-02-08T16:41:14.165Z,36.80
2019-02-08T16:43:46.642Z,37.87
2019-02-08T16:46:19.172Z,38.20
2019-02-08T16:48:51.495Z,36.83
2019-02-08T16:51:24.243Z,35.50
2019-02-08T16:53:56.693Z,36.90
2019-02-08T16:56:29.193Z,35.87
2019-02-08T16:59:01.919Z,36.60
2019-02-08T17:01:34.477Z,39.53
2019-02-08T17:04:07.185Z,39.80
2019-02-08T17:06:40.310Z,39.83
2019-02-08T17:09:15.472Z,39.47
2019-02-08T17:11:49.157Z,37.80
2019-02-08T17:14:21.773Z,39.93
2019-02-08T17:16:54.886Z,39.10
2019-02-08T17:19:27.641Z,38.00
2019-02-08T17:22:00.792Z,121.37
2019-02-08T17:24:33.462Z,60.93
2019-02-08T17:27:06.142Z,43.37
2019-02-08T17:29:38.679Z,38.57
2019-02-08T17:32:11.171Z,38.63
2019-02-08T17:34:43.692Z,38.20
2019-02-08T17:37:16.081Z,38.00
2019-02-08T17:39:48.623Z,37.30
2019-02-08T17:42:21.407Z,43.03
2019-02-08T17:44:54.156Z,38.30
2019-02-08T17:47:26.489Z,37.47
2019-02-08T17:49:59.186Z,39.20
2019-02-08T17:52:31.845Z,39.03
2019-02-08T17:55:05.928Z,38.50
2019-02-08T17:57:38.424Z,36.27
2019-02-08T18:00:31.541Z,37.23
2019-02-08T18:03:04.194Z,37.40
2019-02-08T18:05:36.687Z,37.20
2019-02-08T18:08:09.657Z,38.80
2019-02-08T18:10:42.639Z,36.63
2019-02-08T18:13:16.744Z,37.27
2019-02-08T18:15:49.840Z,36.93
2019-02-08T18:18:24.960Z,39.37
2019-02-08T18:21:02.190Z,55.03
2019-02-08T18:23:34.890Z,40.17
2019-02-08T18:26:07.621Z,34.43
2019-02-08T18:28:40.493Z,32.50
2019-02-08T18:31:12.945Z,34.07
2019-02-08T18:33:46.852Z,33.63
2019-02-08T18:36:19.372Z,33.57
2019-02-08T18:38:51.863Z,33.20
2019-02-08T18:41:24.418Z,31.60
2019-02-08T18:43:57.034Z,33.07
2019-02-08T18:46:30.000Z,34.07
2019-02-08T18:49:02.568Z,34.23
2019-02-08T18:51:35.571Z,33.97
2019-02-08T18:54:08.294Z,33.83
2019-02-08T18:56:41.063Z,31.40
2019-02-08T18:59:13.608Z,32.03
2019-02-08T19:01:46.091Z,33.93
2019-02-08T19:04:18.617Z,34.90
2019-02-08T19:06:51.416Z,34.40
2019-02-08T19:09:24.266Z,32.67
2019-02-08T19:11:56.850Z,33.77
2019-02-08T19:14:29.609Z,36.80
2019-02-08T19:17:02.382Z,44.17
2019-02-08T19:19:35.073Z,70.37
2019-02-08T19:22:07.719Z,41.63
2019-02-08T19:24:40.311Z,37.47
2019-02-08T19:27:12.991Z,36.70
2019-02-08T19:29:47.060Z,34.80
2019-02-08T19:32:19.640Z,35.40
2019-02-08T19:34:52.230Z,35.67
2019-02-08T19:37:24.888Z,33.60
2019-02-08T19:39:57.553Z,33.87
2019-02-08T19:42:30.504Z,35.93
2019-02-08T19:45:03.523Z,40.10
2019-02-08T19:47:36.360Z,38.17
2019-02-08T19:50:11.396Z,33.60
2019-02-08T19:52:43.957Z,34.93
2019-02-08T19:55:16.573Z,36.10
2019-02-08T19:57:49.579Z,36.37
2019-02-08T20:00:25.156Z,35.40
2019-02-08T20:02:57.982Z,35.63
2019-02-08T20:05:30.731Z,37.40
2019-02-08T20:08:03.225Z,34.47
2019-02-08T20:10:38.186Z,33.93
2019-02-08T20:13:10.838Z,31.70
2019-02-08T20:15:43.425Z,31.97
2019-02-08T20:18:16.619Z,31.33
2019-02-08T20:20:49.251Z,30.70
2019-02-08T20:23:21.702Z,30.40
2019-02-08T20:25:54.577Z,34.40
2019-02-08T20:28:28.247Z,31.00
2019-02-08T20:31:00.970Z,33.57
2019-02-08T20:33:33.635Z,31.77
2019-02-08T20:36:06.505Z,35.53
2019-02-08T20:38:39.003Z,33.33
2019-02-08T20:41:11.459Z,31.87
2019-02-08T20:43:56.260Z,42.83
2019-02-08T20:46:30.553Z,61.97
2019-02-08T20:49:03.459Z,36.30
2019-02-08T20:51:36.033Z,33.13
2019-02-08T20:54:08.679Z,32.47
2019-02-08T20:56:41.167Z,37.20
2019-02-08T20:59:13.850Z,44.07
2019-02-08T21:01:46.462Z,40.07
2019-02-08T21:04:19.727Z,40.13
2019-02-08T21:06:52.432Z,40.80
2019-02-08T21:09:25.635Z,38.67
2019-02-08T21:11:58.334Z,37.17
2019-02-08T21:14:30.760Z,34.30
2019-02-08T21:17:03.263Z,35.77
2019-02-08T21:19:36.298Z,34.70
2019-02-08T21:22:08.692Z,33.70
2019-02-08T21:24:41.192Z,33.10
2019-02-08T21:27:13.741Z,33.37
2019-02-08T21:29:46.461Z,34.20
2019-02-08T21:32:19.253Z,35.77
2019-02-08T21:34:52.271Z,35.33
2019-02-08T21:37:24.847Z,41.50
2019-02-08T21:39:57.976Z,45.73
2019-02-08T21:42:30.709Z,46.37
2019-02-08T21:45:03.254Z,45.57
2019-02-08T21:47:35.820Z,43.47
2019-02-08T21:50:12.055Z,40.67
2019-02-08T21:52:44.737Z,39.13
2019-02-08T21:55:18.388Z,38.60
2019-02-08T21:57:52.001Z,39.27
2019-02-08T22:00:35.450Z,52.37
2019-02-08T22:03:11.688Z,51.60
2019-02-08T22:05:54.933Z,38.57
2019-02-08T22:08:27.593Z,36.23
2019-02-08T22:11:00.310Z,33.93
2019-02-08T22:13:33.017Z,36.43
2019-02-08T22:16:06.755Z,34.07
2019-02-08T22:18:39.274Z,34.23
2019-02-08T22:21:11.772Z,34.73
2019-02-08T22:23:44.492Z,34.23
2019-02-08T22:26:16.969Z,35.47
2019-02-08T22:28:50.183Z,34.57
2019-02-08T22:31:22.792Z,36.47
2019-02-08T22:33:55.314Z,35.63
2019-02-08T22:36:27.852Z,36.30
2019-02-08T22:39:00.224Z,35.07
2019-02-08T22:41:32.663Z,35.37
2019-02-08T22:44:05.286Z,36.63
2019-02-08T22:46:37.949Z,35.80
2019-02-08T22:49:10.557Z,36.03
2019-02-08T22:51:42.988Z,37.80
2019-02-08T22:54:15.504Z,37.20
2019-02-08T22:56:48.268Z,39.53
2019-02-08T22:59:22.200Z,37.70
2019-02-08T23:01:55.959Z,39.43
2019-02-08T23:04:28.508Z,38.00
2019-02-08T23:07:00.875Z,37.77
2019-02-08T23:09:34.189Z,39.27
2019-02-08T23:12:07.961Z,39.80
2019-02-08T23:14:40.626Z,41.57
2019-02-08T23:17:13.689Z,39.90
2019-02-08T23:19:46.353Z,37.87
2019-02-08T23:22:19.025Z,39.20
2019-02-08T23:24:51.575Z,40.50
2019-02-08T23:27:23.946Z,40.13
2019-02-08T23:29:56.637Z,39.67
2019-02-08T23:32:29.069Z,39.87
2019-02-08T23:35:01.396Z,39.33
2019-02-08T23:37:33.937Z,38.93
2019-02-08T23:40:07.892Z,40.17
2019-02-08T23:42:40.400Z,38.13
2019-02-08T23:45:13.586Z,42.37
2019-02-08T23:47:46.315Z,42.37
2019-02-08T23:50:18.812Z,42.30
2019-02-08T23:52:51.524Z,41.93
2019-02-08T23:55:24.637Z,41.13
2019-02-08T23:57:57.149Z,41.00
